Flight Track Log - Related Links

Times and Time Zones

All times are in EDT time to prevent confusion due to time zone crossing. See the N27XP flight status page for this flight to view local times or setup timezone preferences in your user account.

Time Position Orientation Groundspeed Altitude Reporting Facility
EDT Latitude Longitude Course Direction KTS MPH feet Rate Location/Type
Mon 10:58:17 AM 34.8350 -77.7353 301° West 244 281 5,700  Level Washington Center
Mon 10:59:18 AM 34.8692 -77.8044 301° West 249 287 8,800 2,902 Climbing Washington Center
Mon 11:00:19 AM 34.9139 -77.8692 310° West 249 287 11,600 1,587 Climbing Washington Center
Mon 11:01:19 AM 34.9500 -77.9333 304° West 269 310 12,000 203 Climbing Washington Center
Mon 11:02:17 AM 34.9922 -78.0208 301° West 276 318 12,000 -50 Level Washington Center
Mon 11:03:18 AM 35.0239 -78.0978 297° West 271 312 11,900 787 Descending Washington Center
Mon 11:04:19 AM 35.0706 -78.1628 311° West 261 300 13,600 1,059 Climbing Washington Center
Mon 11:05:17 AM 35.1406 -78.2031 335° Northwest 255 293 14,000 202 Climbing Washington Center
Mon 11:06:18 AM 35.2231 -78.2567 332° Northwest 297 342 14,000  Level Washington Center
Mon 11:07:18 AM 35.3219 -78.3108 336° Northwest 336 387 14,000  Level Washington Center
Mon 11:08:19 AM 35.4147 -78.3597 337° Northwest 349 402 14,000  Level Washington Center
Mon 11:09:19 AM 35.5031 -78.4189 331° Northwest 361 415 14,000  Level Washington Center
Mon 11:10:17 AM 35.5611 -78.5231 304° West 361 415 14,000  Level Washington Center
Mon 11:11:17 AM 35.6125 -78.6350 299° West 363 418 14,000  Level Washington Center
Mon 11:12:17 AM 35.6578 -78.7339 299° West 376 433 14,000  Level Washington Center
Mon 11:13:18 AM 35.7092 -78.8433 300° West 376 433 14,000  Level Washington Center
Mon 11:14:18 AM 35.7692 -78.9431 307° West 376 433 14,000  Level Washington Center
Mon 11:15:19 AM 35.8442 -79.0206 320° Northwest 359 413 14,000  Level Washington Center
Mon 11:17:00 AM 35.8620 -79.1860 292° West  Level FlightAware Approximate
Mon 11:24:00 AM 36.0645 -79.8268 292° West  Level FlightAware Approximate
Mon 11:25:00 AM 36.0949 -79.9180 292° West  Level FlightAware Approximate
Mon 11:26:00 AM 36.1000 -79.9333 292° West  Level FlightAware Approximate
Mon 11:27:00 AM 36.1013 -79.9411 292° West  Level Estimated
Mon 11:28:00 AM 36.1000 -79.9333 292° West  Level FlightAware Approximate
Mon 11:29:00 AM 36.1013 -79.9411 292° West  Level Estimated
Mon 11:30:00 AM 36.1000 -79.9333 292° West  Level FlightAware Approximate
Mon 11:31:00 AM 36.1013 -79.9411 292° West  Level Estimated

Login

Don't have an account? Register now (free) for customized features, flight alerts, and more!